sensor_id;sensor_type;location;lat;lon;timestamp;temperature;humidity
41060;DHT22;26811;53.160;8.202;2023-10-31T00:03:44;11.90;99.90
41060;DHT22;26811;53.160;8.202;2023-10-31T00:08:45;11.90;99.90
41060;DHT22;26811;53.160;8.202;2023-10-31T00:13:45;11.90;99.90
41060;DHT22;26811;53.160;8.202;2023-10-31T00:18:46;11.90;99.90
41060;DHT22;26811;53.160;8.202;2023-10-31T00:23:47;11.90;99.90
41060;DHT22;26811;53.160;8.202;2023-10-31T00:28:48;11.90;99.90
41060;DHT22;26811;53.160;8.202;2023-10-31T00:33:48;11.90;99.90
41060;DHT22;26811;53.160;8.202;2023-10-31T00:38:49;11.90;99.90
41060;DHT22;26811;53.160;8.202;2023-10-31T00:43:49;11.90;99.90
41060;DHT22;26811;53.160;8.202;2023-10-31T00:48:50;12.00;99.90
41060;DHT22;26811;53.160;8.202;2023-10-31T00:53:51;12.00;99.90
41060;DHT22;26811;53.160;8.202;2023-10-31T00:58:51;12.00;99.90
41060;DHT22;26811;53.160;8.202;2023-10-31T01:03:52;12.00;99.90
41060;DHT22;26811;53.160;8.202;2023-10-31T01:08:52;12.00;99.90
41060;DHT22;26811;53.160;8.202;2023-10-31T01:13:53;12.00;99.90
41060;DHT22;26811;53.160;8.202;2023-10-31T01:18:53;12.00;99.90
41060;DHT22;26811;53.160;8.202;2023-10-31T01:23:54;12.00;99.90
41060;DHT22;26811;53.160;8.202;2023-10-31T01:28:54;12.00;99.90
41060;DHT22;26811;53.160;8.202;2023-10-31T01:33:55;12.00;99.90
41060;DHT22;26811;53.160;8.202;2023-10-31T01:38:55;12.00;99.90
41060;DHT22;26811;53.160;8.202;2023-10-31T01:43:56;12.00;99.90
41060;DHT22;26811;53.160;8.202;2023-10-31T01:48:57;12.00;99.90
41060;DHT22;26811;53.160;8.202;2023-10-31T01:53:57;12.00;99.90
41060;DHT22;26811;53.160;8.202;2023-10-31T01:58:58;12.10;99.90
41060;DHT22;26811;53.160;8.202;2023-10-31T02:03:58;12.10;99.90
41060;DHT22;26811;53.160;8.202;2023-10-31T02:09:00;12.10;99.90
41060;DHT22;26811;53.160;8.202;2023-10-31T02:14:01;12.10;99.90
41060;DHT22;26811;53.160;8.202;2023-10-31T02:19:03;12.10;99.90
41060;DHT22;26811;53.160;8.202;2023-10-31T02:24:03;12.10;99.90
41060;DHT22;26811;53.160;8.202;2023-10-31T02:29:04;12.10;99.90
41060;DHT22;26811;53.160;8.202;2023-10-31T02:34:05;12.10;99.90
41060;DHT22;26811;53.160;8.202;2023-10-31T02:39:06;12.10;99.90
41060;DHT22;26811;53.160;8.202;2023-10-31T02:44:06;12.10;99.90
41060;DHT22;26811;53.160;8.202;2023-10-31T02:49:07;12.10;99.90
41060;DHT22;26811;53.160;8.202;2023-10-31T02:54:10;12.10;99.90
41060;DHT22;26811;53.160;8.202;2023-10-31T02:59:10;12.10;99.90
41060;DHT22;26811;53.160;8.202;2023-10-31T03:04:11;12.10;99.90
41060;DHT22;26811;53.160;8.202;2023-10-31T03:09:11;12.10;99.90
41060;DHT22;26811;53.160;8.202;2023-10-31T03:14:12;12.10;99.90
41060;DHT22;26811;53.160;8.202;2023-10-31T03:19:12;12.10;99.90
41060;DHT22;26811;53.160;8.202;2023-10-31T03:24:13;12.10;99.90
41060;DHT22;26811;53.160;8.202;2023-10-31T03:29:13;12.20;99.90
41060;DHT22;26811;53.160;8.202;2023-10-31T03:34:14;12.10;99.90
41060;DHT22;26811;53.160;8.202;2023-10-31T03:39:14;12.10;99.90
41060;DHT22;26811;53.160;8.202;2023-10-31T03:44:15;12.10;99.90
41060;DHT22;26811;53.160;8.202;2023-10-31T03:49:15;12.10;99.90
41060;DHT22;26811;53.160;8.202;2023-10-31T03:54:17;12.20;99.90
41060;DHT22;26811;53.160;8.202;2023-10-31T03:59:17;12.20;99.90
41060;DHT22;26811;53.160;8.202;2023-10-31T04:04:18;12.20;99.90
41060;DHT22;26811;53.160;8.202;2023-10-31T04:09:18;12.20;99.90
41060;DHT22;26811;53.160;8.202;2023-10-31T04:14:19;12.20;99.90
41060;DHT22;26811;53.160;8.202;2023-10-31T04:19:19;12.20;99.90
41060;DHT22;26811;53.160;8.202;2023-10-31T04:24:20;12.20;99.90
41060;DHT22;26811;53.160;8.202;2023-10-31T04:29:20;12.20;99.90
41060;DHT22;26811;53.160;8.202;2023-10-31T04:34:21;12.20;99.90
41060;DHT22;26811;53.160;8.202;2023-10-31T04:39:21;12.20;99.90
41060;DHT22;26811;53.160;8.202;2023-10-31T04:44:22;12.20;99.90
41060;DHT22;26811;53.160;8.202;2023-10-31T04:49:23;12.20;99.90
41060;DHT22;26811;53.160;8.202;2023-10-31T04:54:23;12.20;99.90
41060;DHT22;26811;53.160;8.202;2023-10-31T04:59:24;12.20;99.90
41060;DHT22;26811;53.160;8.202;2023-10-31T05:04:25;12.20;99.90
41060;DHT22;26811;53.160;8.202;2023-10-31T05:09:26;11.90;99.90
41060;DHT22;26811;53.160;8.202;2023-10-31T05:14:27;11.50;99.90
41060;DHT22;26811;53.160;8.202;2023-10-31T05:19:27;11.10;99.90
41060;DHT22;26811;53.160;8.202;2023-10-31T05:24:28;10.90;99.90
41060;DHT22;26811;53.160;8.202;2023-10-31T05:29:28;10.80;99.90
41060;DHT22;26811;53.160;8.202;2023-10-31T05:34:30;10.70;99.90
41060;DHT22;26811;53.160;8.202;2023-10-31T05:39:31;10.60;99.90
41060;DHT22;26811;53.160;8.202;2023-10-31T05:44:31;10.50;99.90
41060;DHT22;26811;53.160;8.202;2023-10-31T05:49:32;10.40;99.90
41060;DHT22;26811;53.160;8.202;2023-10-31T05:54:32;10.40;99.90
41060;DHT22;26811;53.160;8.202;2023-10-31T05:59:33;10.30;99.90
41060;DHT22;26811;53.160;8.202;2023-10-31T06:04:33;10.30;99.90
41060;DHT22;26811;53.160;8.202;2023-10-31T06:09:34;10.30;99.90
41060;DHT22;26811;53.160;8.202;2023-10-31T06:14:34;10.30;99.90
41060;DHT22;26811;53.160;8.202;2023-10-31T06:19:36;10.30;99.90
41060;DHT22;26811;53.160;8.202;2023-10-31T06:24:37;10.30;99.90
41060;DHT22;26811;53.160;8.202;2023-10-31T06:29:37;10.20;99.90
41060;DHT22;26811;53.160;8.202;2023-10-31T06:34:38;10.20;99.90
41060;DHT22;26811;53.160;8.202;2023-10-31T06:39:38;10.20;99.90
41060;DHT22;26811;53.160;8.202;2023-10-31T06:44:39;10.10;99.90
41060;DHT22;26811;53.160;8.202;2023-10-31T06:49:40;10.10;99.90
41060;DHT22;26811;53.160;8.202;2023-10-31T06:54:40;10.10;99.90
41060;DHT22;26811;53.160;8.202;2023-10-31T06:59:41;10.10;99.90
41060;DHT22;26811;53.160;8.202;2023-10-31T07:04:41;10.10;99.90
41060;DHT22;26811;53.160;8.202;2023-10-31T07:09:42;10.20;99.90
41060;DHT22;26811;53.160;8.202;2023-10-31T07:14:42;10.10;99.90
41060;DHT22;26811;53.160;8.202;2023-10-31T07:19:43;10.10;99.90
41060;DHT22;26811;53.160;8.202;2023-10-31T07:24:44;10.10;99.90
41060;DHT22;26811;53.160;8.202;2023-10-31T07:29:44;10.10;99.90
41060;DHT22;26811;53.160;8.202;2023-10-31T07:34:46;10.10;99.90
41060;DHT22;26811;53.160;8.202;2023-10-31T07:39:47;10.10;99.90
41060;DHT22;26811;53.160;8.202;2023-10-31T07:44:48;10.10;99.90
41060;DHT22;26811;53.160;8.202;2023-10-31T07:49:50;10.10;99.90
41060;DHT22;26811;53.160;8.202;2023-10-31T07:54:51;10.20;99.90
41060;DHT22;26811;53.160;8.202;2023-10-31T07:59:52;10.20;99.90
41060;DHT22;26811;53.160;8.202;2023-10-31T08:04:53;10.20;99.90
41060;DHT22;26811;53.160;8.202;2023-10-31T08:09:53;10.30;99.90
41060;DHT22;26811;53.160;8.202;2023-10-31T08:14:54;10.40;99.90
41060;DHT22;26811;53.160;8.202;2023-10-31T08:19:54;10.40;99.90
41060;DHT22;26811;53.160;8.202;2023-10-31T08:24:55;10.40;99.90
41060;DHT22;26811;53.160;8.202;2023-10-31T08:29:55;10.30;99.90
41060;DHT22;26811;53.160;8.202;2023-10-31T08:34:56;10.30;99.90
41060;DHT22;26811;53.160;8.202;2023-10-31T08:39:58;10.40;99.90
41060;DHT22;26811;53.160;8.202;2023-10-31T08:44:58;10.40;99.90
41060;DHT22;26811;53.160;8.202;2023-10-31T08:49:59;10.40;99.90
41060;DHT22;26811;53.160;8.202;2023-10-31T08:54:59;10.50;99.90
41060;DHT22;26811;53.160;8.202;2023-10-31T09:00:00;10.50;99.90
41060;DHT22;26811;53.160;8.202;2023-10-31T09:05:00;10.50;99.90
41060;DHT22;26811;53.160;8.202;2023-10-31T09:10:01;10.70;99.90
41060;DHT22;26811;53.160;8.202;2023-10-31T09:15:02;10.70;99.90
41060;DHT22;26811;53.160;8.202;2023-10-31T09:20:02;10.70;99.90
41060;DHT22;26811;53.160;8.202;2023-10-31T09:25:04;10.70;99.90
41060;DHT22;26811;53.160;8.202;2023-10-31T09:30:05;10.70;99.90
41060;DHT22;26811;53.160;8.202;2023-10-31T09:35:06;10.70;99.90
41060;DHT22;26811;53.160;8.202;2023-10-31T09:40:09;10.80;99.90
41060;DHT22;26811;53.160;8.202;2023-10-31T09:45:10;10.80;99.90
41060;DHT22;26811;53.160;8.202;2023-10-31T09:50:11;10.90;99.90
41060;DHT22;26811;53.160;8.202;2023-10-31T09:55:12;11.00;99.90
41060;DHT22;26811;53.160;8.202;2023-10-31T10:00:13;11.10;99.90
41060;DHT22;26811;53.160;8.202;2023-10-31T10:05:14;11.10;99.90
41060;DHT22;26811;53.160;8.202;2023-10-31T10:10:16;11.10;99.90
41060;DHT22;26811;53.160;8.202;2023-10-31T10:15:17;11.10;99.90
41060;DHT22;26811;53.160;8.202;2023-10-31T10:20:18;11.20;99.90
41060;DHT22;26811;53.160;8.202;2023-10-31T10:25:18;11.20;99.90
41060;DHT22;26811;53.160;8.202;2023-10-31T10:30:19;11.20;99.90
41060;DHT22;26811;53.160;8.202;2023-10-31T10:35:20;11.20;99.90
41060;DHT22;26811;53.160;8.202;2023-10-31T10:40:21;11.20;99.90
41060;DHT22;26811;53.160;8.202;2023-10-31T10:45:22;11.30;99.90
41060;DHT22;26811;53.160;8.202;2023-10-31T10:50:24;11.30;99.90
41060;DHT22;26811;53.160;8.202;2023-10-31T10:55:30;11.30;99.90
41060;DHT22;26811;53.160;8.202;2023-10-31T11:00:33;11.40;99.90
41060;DHT22;26811;53.160;8.202;2023-10-31T11:05:35;11.60;99.90
41060;DHT22;26811;53.160;8.202;2023-10-31T11:10:36;11.70;99.90
41060;DHT22;26811;53.160;8.202;2023-10-31T11:15:38;11.90;99.90
41060;DHT22;26811;53.160;8.202;2023-10-31T11:20:40;12.00;99.90
41060;DHT22;26811;53.160;8.202;2023-10-31T11:25:49;12.00;99.90
41060;DHT22;26811;53.160;8.202;2023-10-31T11:30:51;12.10;99.90
41060;DHT22;26811;53.160;8.202;2023-10-31T11:36:03;12.30;99.90
41060;DHT22;26811;53.160;8.202;2023-10-31T11:41:05;12.20;99.90
41060;DHT22;26811;53.160;8.202;2023-10-31T11:46:26;12.10;99.90
41060;DHT22;26811;53.160;8.202;2023-10-31T11:51:29;11.90;99.90
41060;DHT22;26811;53.160;8.202;2023-10-31T11:56:30;11.60;99.90
41060;DHT22;26811;53.160;8.202;2023-10-31T12:01:30;11.40;99.90
41060;DHT22;26811;53.160;8.202;2023-10-31T12:06:31;11.30;99.90
41060;DHT22;26811;53.160;8.202;2023-10-31T12:11:32;11.40;99.90
41060;DHT22;26811;53.160;8.202;2023-10-31T12:16:33;11.40;99.90
41060;DHT22;26811;53.160;8.202;2023-10-31T12:21:44;11.30;99.90
41060;DHT22;26811;53.160;8.202;2023-10-31T12:26:47;11.30;99.90
41060;DHT22;26811;53.160;8.202;2023-10-31T12:31:51;11.30;99.90
41060;DHT22;26811;53.160;8.202;2023-10-31T12:36:53;11.10;99.90
41060;DHT22;26811;53.160;8.202;2023-10-31T12:41:54;10.90;99.90
41060;DHT22;26811;53.160;8.202;2023-10-31T12:46:57;10.80;99.90
41060;DHT22;26811;53.160;8.202;2023-10-31T12:51:59;10.70;99.90
41060;DHT22;26811;53.160;8.202;2023-10-31T12:57:07;10.80;99.90
41060;DHT22;26811;53.160;8.202;2023-10-31T13:02:08;10.80;99.90
41060;DHT22;26811;53.160;8.202;2023-10-31T13:07:10;10.90;99.90
41060;DHT22;26811;53.160;8.202;2023-10-31T13:12:11;10.80;99.90
41060;DHT22;26811;53.160;8.202;2023-10-31T13:17:12;10.90;99.90
41060;DHT22;26811;53.160;8.202;2023-10-31T13:22:12;11.00;99.90
41060;DHT22;26811;53.160;8.202;2023-10-31T13:27:13;11.30;99.90
41060;DHT22;26811;53.160;8.202;2023-10-31T13:32:17;11.30;99.90
41060;DHT22;26811;53.160;8.202;2023-10-31T13:37:17;11.10;99.90
41060;DHT22;26811;53.160;8.202;2023-10-31T13:42:18;10.80;99.90
41060;DHT22;26811;53.160;8.202;2023-10-31T13:47:18;10.50;99.90
41060;DHT22;26811;53.160;8.202;2023-10-31T13:52:19;10.20;99.90
41060;DHT22;26811;53.160;8.202;2023-10-31T13:57:20;10.10;99.90
41060;DHT22;26811;53.160;8.202;2023-10-31T14:02:23;10.10;99.90
41060;DHT22;26811;53.160;8.202;2023-10-31T14:07:24;10.30;99.90
41060;DHT22;26811;53.160;8.202;2023-10-31T14:12:24;10.40;99.90
41060;DHT22;26811;53.160;8.202;2023-10-31T14:17:25;10.50;99.90
41060;DHT22;26811;53.160;8.202;2023-10-31T14:22:29;10.60;99.90
41060;DHT22;26811;53.160;8.202;2023-10-31T14:27:32;10.40;99.90
41060;DHT22;26811;53.160;8.202;2023-10-31T14:32:34;10.10;99.90
41060;DHT22;26811;53.160;8.202;2023-10-31T14:37:34;10.00;99.90
41060;DHT22;26811;53.160;8.202;2023-10-31T14:42:35;9.90;99.90
41060;DHT22;26811;53.160;8.202;2023-10-31T14:47:36;9.90;99.90
41060;DHT22;26811;53.160;8.202;2023-10-31T14:52:39;9.90;99.90
41060;DHT22;26811;53.160;8.202;2023-10-31T14:57:41;9.80;99.90
41060;DHT22;26811;53.160;8.202;2023-10-31T15:02:44;9.70;99.90
41060;DHT22;26811;53.160;8.202;2023-10-31T15:07:45;9.60;99.90
41060;DHT22;26811;53.160;8.202;2023-10-31T15:12:46;9.50;99.90
41060;DHT22;26811;53.160;8.202;2023-10-31T15:17:49;9.30;99.90
41060;DHT22;26811;53.160;8.202;2023-10-31T15:22:53;9.30;99.90
41060;DHT22;26811;53.160;8.202;2023-10-31T15:27:54;9.20;99.90
41060;DHT22;26811;53.160;8.202;2023-10-31T15:32:55;9.00;99.90
41060;DHT22;26811;53.160;8.202;2023-10-31T15:37:55;9.00;99.90
41060;DHT22;26811;53.160;8.202;2023-10-31T15:42:56;8.90;99.90
41060;DHT22;26811;53.160;8.202;2023-10-31T15:47:56;8.90;99.90
41060;DHT22;26811;53.160;8.202;2023-10-31T15:52:57;8.90;99.90
41060;DHT22;26811;53.160;8.202;2023-10-31T15:57:58;8.90;99.90
41060;DHT22;26811;53.160;8.202;2023-10-31T16:02:59;8.80;99.90
41060;DHT22;26811;53.160;8.202;2023-10-31T16:08:00;8.90;99.90
41060;DHT22;26811;53.160;8.202;2023-10-31T16:13:00;8.90;99.90
41060;DHT22;26811;53.160;8.202;2023-10-31T16:18:01;8.90;99.90
41060;DHT22;26811;53.160;8.202;2023-10-31T16:23:02;9.00;99.90
41060;DHT22;26811;53.160;8.202;2023-10-31T16:28:03;9.00;99.90
41060;DHT22;26811;53.160;8.202;2023-10-31T16:33:04;9.10;99.90
41060;DHT22;26811;53.160;8.202;2023-10-31T16:38:04;9.20;99.90
41060;DHT22;26811;53.160;8.202;2023-10-31T16:43:05;9.20;99.90
41060;DHT22;26811;53.160;8.202;2023-10-31T16:48:05;9.20;99.90
41060;DHT22;26811;53.160;8.202;2023-10-31T16:53:06;9.30;99.90
41060;DHT22;26811;53.160;8.202;2023-10-31T16:58:07;9.30;99.90
41060;DHT22;26811;53.160;8.202;2023-10-31T17:03:10;9.30;99.90
41060;DHT22;26811;53.160;8.202;2023-10-31T17:08:15;9.30;99.90
41060;DHT22;26811;53.160;8.202;2023-10-31T17:13:15;9.30;99.90
41060;DHT22;26811;53.160;8.202;2023-10-31T17:18:16;9.30;99.90
41060;DHT22;26811;53.160;8.202;2023-10-31T17:23:17;9.30;99.90
41060;DHT22;26811;53.160;8.202;2023-10-31T17:28:18;9.30;99.90
41060;DHT22;26811;53.160;8.202;2023-10-31T17:33:19;9.30;99.90
41060;DHT22;26811;53.160;8.202;2023-10-31T17:38:19;9.20;99.90
41060;DHT22;26811;53.160;8.202;2023-10-31T17:43:22;9.30;99.90
41060;DHT22;26811;53.160;8.202;2023-10-31T17:48:23;9.30;99.90
41060;DHT22;26811;53.160;8.202;2023-10-31T17:53:23;9.30;99.90
41060;DHT22;26811;53.160;8.202;2023-10-31T17:58:24;9.30;99.90
41060;DHT22;26811;53.160;8.202;2023-10-31T18:03:25;9.30;99.90
41060;DHT22;26811;53.160;8.202;2023-10-31T18:08:25;9.30;99.90
41060;DHT22;26811;53.160;8.202;2023-10-31T18:13:28;9.30;99.90
41060;DHT22;26811;53.160;8.202;2023-10-31T18:18:29;9.10;99.90
41060;DHT22;26811;53.160;8.202;2023-10-31T18:23:29;9.00;99.90
41060;DHT22;26811;53.160;8.202;2023-10-31T18:28:30;8.80;99.90
41060;DHT22;26811;53.160;8.202;2023-10-31T18:33:30;8.70;99.90
41060;DHT22;26811;53.160;8.202;2023-10-31T18:38:34;8.60;99.90
41060;DHT22;26811;53.160;8.202;2023-10-31T18:43:35;8.70;99.90
41060;DHT22;26811;53.160;8.202;2023-10-31T18:48:35;8.60;99.90
41060;DHT22;26811;53.160;8.202;2023-10-31T18:53:39;8.70;99.90
41060;DHT22;26811;53.160;8.202;2023-10-31T18:58:40;8.70;99.90
41060;DHT22;26811;53.160;8.202;2023-10-31T19:03:40;8.70;99.90
41060;DHT22;26811;53.160;8.202;2023-10-31T19:08:41;8.70;99.90
41060;DHT22;26811;53.160;8.202;2023-10-31T19:13:41;8.80;99.90
41060;DHT22;26811;53.160;8.202;2023-10-31T19:18:42;8.80;99.90
41060;DHT22;26811;53.160;8.202;2023-10-31T19:23:42;8.80;99.90
41060;DHT22;26811;53.160;8.202;2023-10-31T19:28:46;8.80;99.90
41060;DHT22;26811;53.160;8.202;2023-10-31T19:33:47;8.80;99.90
41060;DHT22;26811;53.160;8.202;2023-10-31T19:38:48;8.80;99.90
41060;DHT22;26811;53.160;8.202;2023-10-31T19:43:48;8.80;99.90
41060;DHT22;26811;53.160;8.202;2023-10-31T19:48:49;8.90;99.90
41060;DHT22;26811;53.160;8.202;2023-10-31T19:53:50;8.90;99.90
41060;DHT22;26811;53.160;8.202;2023-10-31T19:58:50;8.90;99.90
41060;DHT22;26811;53.160;8.202;2023-10-31T20:03:52;8.90;99.90
41060;DHT22;26811;53.160;8.202;2023-10-31T20:08:52;8.90;99.90
41060;DHT22;26811;53.160;8.202;2023-10-31T20:13:53;8.90;99.90
41060;DHT22;26811;53.160;8.202;2023-10-31T20:18:54;8.80;99.90
41060;DHT22;26811;53.160;8.202;2023-10-31T20:23:55;8.80;99.90
41060;DHT22;26811;53.160;8.202;2023-10-31T20:28:56;8.70;99.90
41060;DHT22;26811;53.160;8.202;2023-10-31T20:33:56;8.70;99.90
41060;DHT22;26811;53.160;8.202;2023-10-31T20:38:57;8.60;99.90
41060;DHT22;26811;53.160;8.202;2023-10-31T20:43:58;8.70;99.90
41060;DHT22;26811;53.160;8.202;2023-10-31T20:48:58;8.70;99.90
41060;DHT22;26811;53.160;8.202;2023-10-31T20:54:00;8.60;99.90
41060;DHT22;26811;53.160;8.202;2023-10-31T20:59:01;8.60;99.90
41060;DHT22;26811;53.160;8.202;2023-10-31T21:04:01;8.60;99.90
41060;DHT22;26811;53.160;8.202;2023-10-31T21:09:03;8.60;99.90
41060;DHT22;26811;53.160;8.202;2023-10-31T21:14:04;8.60;99.90
41060;DHT22;26811;53.160;8.202;2023-10-31T21:19:05;8.50;99.90
41060;DHT22;26811;53.160;8.202;2023-10-31T21:24:06;8.50;99.90
41060;DHT22;26811;53.160;8.202;2023-10-31T21:29:08;8.50;99.90
41060;DHT22;26811;53.160;8.202;2023-10-31T21:34:08;8.70;99.90
41060;DHT22;26811;53.160;8.202;2023-10-31T21:39:10;8.70;99.90
41060;DHT22;26811;53.160;8.202;2023-10-31T21:44:10;8.70;99.90
41060;DHT22;26811;53.160;8.202;2023-10-31T21:49:11;8.70;99.90
41060;DHT22;26811;53.160;8.202;2023-10-31T21:54:12;8.60;99.90
41060;DHT22;26811;53.160;8.202;2023-10-31T21:59:12;8.60;99.90
41060;DHT22;26811;53.160;8.202;2023-10-31T22:04:13;8.60;99.90
41060;DHT22;26811;53.160;8.202;2023-10-31T22:09:14;8.60;99.90
41060;DHT22;26811;53.160;8.202;2023-10-31T22:14:14;8.60;99.90
41060;DHT22;26811;53.160;8.202;2023-10-31T22:19:15;8.50;99.90
41060;DHT22;26811;53.160;8.202;2023-10-31T22:24:16;8.50;99.90
41060;DHT22;26811;53.160;8.202;2023-10-31T22:29:16;8.60;99.90
41060;DHT22;26811;53.160;8.202;2023-10-31T22:34:18;8.60;99.90
41060;DHT22;26811;53.160;8.202;2023-10-31T22:39:19;8.60;99.90
41060;DHT22;26811;53.160;8.202;2023-10-31T22:44:20;8.60;99.90
41060;DHT22;26811;53.160;8.202;2023-10-31T22:49:21;8.70;99.90
41060;DHT22;26811;53.160;8.202;2023-10-31T22:54:23;8.60;99.90
41060;DHT22;26811;53.160;8.202;2023-10-31T22:59:24;8.60;99.90
41060;DHT22;26811;53.160;8.202;2023-10-31T23:04:27;8.60;99.90
41060;DHT22;26811;53.160;8.202;2023-10-31T23:09:29;8.60;99.90
41060;DHT22;26811;53.160;8.202;2023-10-31T23:14:29;8.60;99.90
41060;DHT22;26811;53.160;8.202;2023-10-31T23:19:30;8.60;99.90
41060;DHT22;26811;53.160;8.202;2023-10-31T23:24:30;8.60;99.90
41060;DHT22;26811;53.160;8.202;2023-10-31T23:29:31;8.70;99.90
41060;DHT22;26811;53.160;8.202;2023-10-31T23:34:31;8.70;99.90
41060;DHT22;26811;53.160;8.202;2023-10-31T23:39:32;8.70;99.90
41060;DHT22;26811;53.160;8.202;2023-10-31T23:44:33;8.70;99.90
41060;DHT22;26811;53.160;8.202;2023-10-31T23:49:33;8.80;99.90
41060;DHT22;26811;53.160;8.202;2023-10-31T23:54:34;8.80;99.90
41060;DHT22;26811;53.160;8.202;2023-10-31T23:59:34;8.80;99.90
